createdAt,value
2023-02-03T00:00:04.074Z,2.81
2023-02-03T00:01:03.992Z,2.81
2023-02-03T00:02:04.005Z,2.81
2023-02-03T00:03:03.913Z,2.81
2023-02-03T00:04:03.761Z,2.88
2023-02-03T00:05:03.863Z,2.81
2023-02-03T00:06:03.779Z,2.88
2023-02-03T00:07:03.705Z,2.88
2023-02-03T00:08:03.764Z,2.88
2023-02-03T00:09:03.674Z,2.88
2023-02-03T00:10:03.591Z,2.88
2023-02-03T00:11:03.525Z,2.88
2023-02-03T00:12:04.402Z,2.88
2023-02-03T00:13:04.309Z,2.88
2023-02-03T00:14:04.228Z,2.88
2023-02-03T00:15:04.173Z,2.88
2023-02-03T00:16:04.106Z,2.88
2023-02-03T00:17:03.994Z,2.88
2023-02-03T00:18:04.016Z,2.88
2023-02-03T00:19:03.991Z,2.88
2023-02-03T00:20:03.998Z,2.88
2023-02-03T00:21:04.004Z,2.88
2023-02-03T00:22:03.986Z,2.88
2023-02-03T00:23:03.916Z,2.94
2023-02-03T00:24:03.910Z,2.94
2023-02-03T00:25:03.912Z,2.94
2023-02-03T00:26:03.913Z,2.94
2023-02-03T00:28:04.279Z,2.94
2023-02-03T00:29:04.069Z,2.94
2023-02-03T00:30:04.151Z,2.94
2023-02-03T00:31:04.083Z,2.94
2023-02-03T00:32:04.236Z,2.94
2023-02-03T00:33:03.991Z,2.94
2023-02-03T00:34:04.001Z,2.94
2023-02-03T00:35:03.925Z,2.94
2023-02-03T00:36:03.911Z,2.94
2023-02-03T00:37:03.832Z,2.94
2023-02-03T00:38:03.834Z,2.94
2023-02-03T00:39:03.761Z,2.94
2023-02-03T00:40:03.675Z,2.94
2023-02-03T00:41:03.597Z,2.94
2023-02-03T00:42:04.394Z,2.94
2023-02-03T00:43:04.328Z,2.94
2023-02-03T00:44:04.255Z,2.94
2023-02-03T00:45:04.076Z,2.94
2023-02-03T00:46:04.215Z,2.94
2023-02-03T00:47:03.994Z,2.94
2023-02-03T00:48:03.914Z,3.00
2023-02-03T00:49:03.994Z,2.94
2023-02-03T00:50:03.930Z,3.00
2023-02-03T00:51:03.754Z,3.00
2023-02-03T00:52:03.830Z,3.00
2023-02-03T00:53:03.930Z,3.00
2023-02-03T00:54:03.830Z,2.94
2023-02-03T00:55:03.827Z,3.00
2023-02-03T00:56:03.832Z,3.00
2023-02-03T00:57:03.838Z,3.00
2023-02-03T00:58:03.932Z,3.00
2023-02-03T00:59:03.994Z,3.00
2023-02-03T01:00:03.923Z,3.00
2023-02-03T01:01:04.113Z,3.00
2023-02-03T01:02:04.053Z,3.00
2023-02-03T01:03:03.822Z,3.00
2023-02-03T01:04:03.837Z,3.00
2023-02-03T01:05:03.744Z,3.00
2023-02-03T01:06:03.746Z,3.00
2023-02-03T01:07:03.753Z,3.00
2023-02-03T01:08:03.754Z,3.00
2023-02-03T01:09:03.838Z,3.00
2023-02-03T01:10:04.082Z,3.00
2023-02-03T01:11:04.000Z,3.00
2023-02-03T01:12:03.917Z,3.00
2023-02-03T01:13:03.921Z,3.00
2023-02-03T01:14:03.753Z,3.00
2023-02-03T01:15:03.689Z,3.00
2023-02-03T01:16:03.685Z,3.00
2023-02-03T01:17:03.638Z,3.00
2023-02-03T01:18:03.750Z,3.00
2023-02-03T01:19:03.668Z,3.00
2023-02-03T01:20:03.510Z,3.00
2023-02-03T01:21:04.417Z,3.00
2023-02-03T01:22:03.446Z,3.00
2023-02-03T01:23:04.397Z,3.00
2023-02-03T01:24:04.394Z,3.00
2023-02-03T01:25:04.235Z,3.00
2023-02-03T01:26:04.338Z,3.00
2023-02-03T01:27:04.238Z,3.06
2023-02-03T01:28:04.078Z,3.06
2023-02-03T01:29:04.079Z,3.00
2023-02-03T01:30:03.999Z,3.06
2023-02-03T01:31:04.037Z,3.06
2023-02-03T01:32:03.989Z,3.06
2023-02-03T01:33:03.828Z,3.06
2023-02-03T01:34:03.846Z,3.06
2023-02-03T01:35:03.919Z,3.06
2023-02-03T01:36:03.837Z,3.06
2023-02-03T01:37:03.746Z,3.06
2023-02-03T01:38:03.765Z,3.06
2023-02-03T01:39:03.839Z,3.06
2023-02-03T01:40:03.855Z,3.06
2023-02-03T01:41:03.680Z,3.06
2023-02-03T01:42:03.602Z,3.06
2023-02-03T01:43:03.688Z,3.06
2023-02-03T01:44:03.663Z,3.06
2023-02-03T01:45:03.594Z,3.12
2023-02-03T01:46:03.651Z,3.12
2023-02-03T01:47:03.435Z,3.12
2023-02-03T01:48:04.390Z,3.12
2023-02-03T01:49:04.388Z,3.12
2023-02-03T01:50:04.315Z,3.12
2023-02-03T01:51:04.306Z,3.12
2023-02-03T01:52:04.225Z,3.12
2023-02-03T01:53:04.320Z,3.12
2023-02-03T01:54:04.232Z,3.12
2023-02-03T01:55:04.314Z,3.12
2023-02-03T01:56:04.233Z,3.19
2023-02-03T01:57:04.165Z,3.19
2023-02-03T01:58:04.156Z,3.19
2023-02-03T01:59:04.159Z,3.19
2023-02-03T02:00:04.004Z,3.19
2023-02-03T02:01:04.100Z,3.19
2023-02-03T02:02:03.917Z,3.19
2023-02-03T02:03:03.845Z,3.19
2023-02-03T02:04:03.753Z,3.19
2023-02-03T02:05:03.751Z,3.19
2023-02-03T02:06:03.693Z,3.19
2023-02-03T02:07:03.510Z,3.25
2023-02-03T02:08:03.519Z,3.25
2023-02-03T02:09:03.591Z,3.25
2023-02-03T02:10:03.511Z,3.25
2023-02-03T02:11:03.430Z,3.25
2023-02-03T02:12:03.517Z,3.25
2023-02-03T02:13:04.320Z,3.25
2023-02-03T02:14:04.321Z,3.25
2023-02-03T02:15:04.248Z,3.25
2023-02-03T02:16:04.374Z,3.25
2023-02-03T02:17:04.388Z,3.31
2023-02-03T02:18:04.317Z,3.31
2023-02-03T02:19:04.307Z,3.31
2023-02-03T02:20:04.261Z,3.31
2023-02-03T02:21:04.236Z,3.31
2023-02-03T02:22:04.233Z,3.31
2023-02-03T02:23:04.070Z,3.31
2023-02-03T02:24:04.109Z,3.31
2023-02-03T02:25:03.935Z,3.31
2023-02-03T02:26:04.013Z,3.38
2023-02-03T02:27:03.831Z,3.38
2023-02-03T02:28:03.835Z,3.38
2023-02-03T02:29:03.930Z,3.38
2023-02-03T02:30:03.761Z,3.38
2023-02-03T02:31:03.736Z,3.38
2023-02-03T02:32:03.553Z,3.38
2023-02-03T02:33:03.748Z,3.44
2023-02-03T02:34:03.847Z,3.44
2023-02-03T02:35:03.670Z,3.44
2023-02-03T02:36:03.677Z,3.44
2023-02-03T02:37:03.590Z,3.44
2023-02-03T02:38:03.747Z,3.44
2023-02-03T02:39:03.672Z,3.44
2023-02-03T02:40:03.589Z,3.44
2023-02-03T02:41:03.508Z,3.44
2023-02-03T02:42:03.516Z,3.50
2023-02-03T02:43:04.398Z,3.50
2023-02-03T02:44:04.397Z,3.50
2023-02-03T02:45:04.236Z,3.50
2023-02-03T02:46:04.267Z,3.50
2023-02-03T02:47:04.153Z,3.56
2023-02-03T02:48:04.893Z,3.56
2023-02-03T02:49:03.912Z,3.56
2023-02-03T02:50:03.840Z,3.56
2023-02-03T02:51:03.764Z,3.56
2023-02-03T02:52:03.753Z,3.62
2023-02-03T02:53:03.751Z,3.62
2023-02-03T02:54:03.935Z,3.62
2023-02-03T02:55:03.841Z,3.62
2023-02-03T02:56:03.768Z,3.62
2023-02-03T02:57:03.681Z,3.62
2023-02-03T02:58:03.598Z,3.62
2023-02-03T02:59:03.764Z,3.69
2023-02-03T03:00:03.870Z,3.69
2023-02-03T03:01:03.998Z,3.69
2023-02-03T03:02:03.830Z,3.69
2023-02-03T03:03:03.917Z,3.69
2023-02-03T03:04:03.756Z,3.69
2023-02-03T03:05:03.798Z,3.75
2023-02-03T03:06:03.697Z,3.75
2023-02-03T03:07:03.592Z,3.75
2023-02-03T03:08:03.840Z,3.75
2023-02-03T03:09:03.761Z,3.81
2023-02-03T03:10:03.753Z,3.81
2023-02-03T03:11:03.686Z,3.81
2023-02-03T03:12:03.593Z,3.81
2023-02-03T03:13:03.683Z,3.81
2023-02-03T03:14:03.758Z,3.81
2023-02-03T03:15:03.678Z,3.88
2023-02-03T03:16:03.637Z,3.88
2023-02-03T03:17:03.518Z,3.88
2023-02-03T03:18:03.523Z,3.94
2023-02-03T03:19:03.509Z,3.94
2023-02-03T03:20:04.471Z,3.94
2023-02-03T03:21:04.393Z,3.94
2023-02-03T03:22:04.321Z,4.00
2023-02-03T03:23:04.234Z,4.00
2023-02-03T03:24:04.160Z,4.00
2023-02-03T03:25:04.003Z,4.00
2023-02-03T03:26:04.007Z,4.06
2023-02-03T03:27:03.512Z,4.06
2023-02-03T03:28:03.634Z,4.06
2023-02-03T03:29:03.756Z,4.12
2023-02-03T03:30:03.778Z,4.12
2023-02-03T03:31:03.661Z,4.12
2023-02-03T03:32:03.663Z,4.12
2023-02-03T03:33:03.688Z,4.12
2023-02-03T03:34:03.507Z,4.12
2023-02-03T03:35:03.425Z,4.19
2023-02-03T03:36:04.413Z,4.19
2023-02-03T03:37:04.394Z,4.19
2023-02-03T03:38:04.225Z,4.19
2023-02-03T03:39:04.243Z,4.19
2023-02-03T03:40:04.081Z,4.19
2023-02-03T03:41:03.755Z,4.25
2023-02-03T03:42:03.776Z,4.25
2023-02-03T03:43:03.682Z,4.25
2023-02-03T03:44:03.591Z,4.25
2023-02-03T03:45:03.749Z,4.25
2023-02-03T03:46:03.772Z,4.25
2023-02-03T03:47:03.710Z,4.25
2023-02-03T03:48:03.831Z,4.31
2023-02-03T03:49:03.672Z,4.31
2023-02-03T03:50:03.758Z,4.31
2023-02-03T03:51:03.672Z,4.31
2023-02-03T03:52:03.675Z,4.31
2023-02-03T03:53:03.910Z,4.31
2023-02-03T03:54:03.756Z,4.38
2023-02-03T03:55:03.672Z,4.38
2023-02-03T03:56:03.677Z,4.38
2023-02-03T03:57:03.840Z,4.38
2023-02-03T03:58:03.750Z,4.38
2023-02-03T03:59:03.849Z,4.38
2023-02-03T04:00:03.690Z,4.38
2023-02-03T04:01:03.879Z,4.38
2023-02-03T04:02:03.790Z,4.44
2023-02-03T04:03:03.756Z,4.44
2023-02-03T04:04:04.078Z,4.44
2023-02-03T04:05:04.103Z,4.44
2023-02-03T04:06:04.089Z,4.44
2023-02-03T04:07:04.029Z,4.44
2023-02-03T04:08:03.909Z,4.44
2023-02-03T04:09:03.998Z,4.44
2023-02-03T04:10:03.920Z,4.44
2023-02-03T04:11:03.838Z,4.44
2023-02-03T04:12:03.749Z,4.50
2023-02-03T04:13:04.002Z,4.44
2023-02-03T04:14:03.925Z,4.50
2023-02-03T04:15:03.919Z,4.50
2023-02-03T04:16:03.933Z,4.50
2023-02-03T04:17:03.902Z,4.50
2023-02-03T04:18:03.990Z,4.50
2023-02-03T04:19:04.154Z,4.50
2023-02-03T04:20:04.080Z,4.50
2023-02-03T04:21:04.002Z,4.50
2023-02-03T04:22:03.922Z,4.56
2023-02-03T04:23:03.928Z,4.56
2023-02-03T04:24:04.019Z,4.56
2023-02-03T04:25:03.839Z,4.56
2023-02-03T04:26:03.826Z,4.56
2023-02-03T04:27:05.325Z,4.56
2023-02-03T04:28:03.886Z,4.56
2023-02-03T04:29:03.928Z,4.56
2023-02-03T04:30:03.928Z,4.56
2023-02-03T04:31:03.972Z,4.56
2023-02-03T04:32:03.966Z,4.56
2023-02-03T04:33:03.848Z,4.56
2023-02-03T04:34:03.846Z,4.56
2023-02-03T04:35:03.669Z,4.62
2023-02-03T04:36:03.689Z,4.62
2023-02-03T04:37:03.668Z,4.62
2023-02-03T04:38:03.783Z,4.62
2023-02-03T04:39:03.687Z,4.62
2023-02-03T04:40:03.689Z,4.62
2023-02-03T04:41:03.598Z,4.69
2023-02-03T04:42:03.552Z,4.62
2023-02-03T04:43:04.400Z,4.62
2023-02-03T04:44:04.394Z,4.69
2023-02-03T04:45:04.400Z,4.69
2023-02-03T04:46:04.410Z,4.69
2023-02-03T04:47:04.172Z,4.69
2023-02-03T04:48:04.078Z,4.69
2023-02-03T04:49:03.549Z,4.69
2023-02-03T04:50:03.519Z,4.69
2023-02-03T04:51:03.437Z,4.69
2023-02-03T04:52:03.593Z,4.69
2023-02-03T04:53:03.676Z,4.75
2023-02-03T04:54:03.828Z,4.75
2023-02-03T04:55:03.747Z,4.69
2023-02-03T04:56:03.764Z,4.75
2023-02-03T04:57:03.591Z,4.75
2023-02-03T04:58:03.762Z,4.75
2023-02-03T04:59:03.756Z,4.75
2023-02-03T05:00:03.765Z,4.75
2023-02-03T05:01:04.151Z,4.75
2023-02-03T05:02:04.017Z,4.75
2023-02-03T05:03:04.123Z,4.75
2023-02-03T05:04:03.990Z,4.81
2023-02-03T05:05:04.010Z,4.75
2023-02-03T05:06:03.857Z,4.75
2023-02-03T05:07:04.025Z,4.81
2023-02-03T05:08:03.923Z,4.81
2023-02-03T05:09:03.911Z,4.81
2023-02-03T05:10:03.911Z,4.75
2023-02-03T05:11:05.221Z,4.81
2023-02-03T05:12:03.779Z,4.81
2023-02-03T05:13:03.828Z,4.81
2023-02-03T05:14:03.770Z,4.81
2023-02-03T05:15:03.764Z,4.88
2023-02-03T05:17:03.994Z,4.88
2023-02-03T05:19:03.916Z,4.81
2023-02-03T05:20:03.908Z,4.88
2023-02-03T05:21:03.923Z,4.88
2023-02-03T05:22:03.846Z,4.88
2023-02-03T05:23:03.911Z,4.88
2023-02-03T05:24:03.918Z,4.88
2023-02-03T05:25:04.189Z,4.88
2023-02-03T05:26:04.000Z,4.88
2023-02-03T05:27:04.078Z,4.88
2023-02-03T05:28:04.232Z,4.88
2023-02-03T05:29:04.078Z,4.88
2023-02-03T05:30:04.098Z,4.88
2023-02-03T05:31:04.070Z,4.88
2023-02-03T05:32:04.158Z,4.88
2023-02-03T05:33:03.992Z,4.88
2023-02-03T05:34:03.993Z,4.88
2023-02-03T05:35:04.019Z,4.88
2023-02-03T05:36:04.158Z,4.88
2023-02-03T05:37:03.993Z,4.88
2023-02-03T05:38:03.921Z,4.88
2023-02-03T05:39:03.919Z,4.88
2023-02-03T05:40:03.825Z,4.88
2023-02-03T05:41:03.831Z,4.88
2023-02-03T05:42:03.911Z,4.88
2023-02-03T05:43:03.935Z,4.94
2023-02-03T05:44:04.179Z,4.94
2023-02-03T05:45:04.076Z,4.94
2023-02-03T05:46:04.255Z,4.88
2023-02-03T05:47:04.078Z,4.94
2023-02-03T05:48:03.986Z,4.94
2023-02-03T05:49:04.070Z,4.94
2023-02-03T05:50:04.109Z,4.94
2023-02-03T05:51:04.028Z,4.94
2023-02-03T05:52:03.985Z,4.94
2023-02-03T05:53:03.917Z,4.94
2023-02-03T05:54:03.922Z,4.94
2023-02-03T05:55:04.013Z,4.94
2023-02-03T05:56:03.911Z,4.94
2023-02-03T05:57:03.914Z,4.94
2023-02-03T05:58:03.510Z,4.94
2023-02-03T05:59:03.437Z,4.94
2023-02-03T06:00:04.521Z,4.94
2023-02-03T06:01:04.322Z,4.94
2023-02-03T06:02:04.312Z,4.94
2023-02-03T06:03:04.448Z,4.94
2023-02-03T06:04:04.366Z,4.94
2023-02-03T06:05:04.319Z,4.94
2023-02-03T06:06:04.311Z,4.94
2023-02-03T06:07:04.159Z,4.94
2023-02-03T06:08:04.240Z,4.94
2023-02-03T06:09:04.245Z,5.00
2023-02-03T06:10:04.148Z,5.00
2023-02-03T06:11:04.231Z,5.00
2023-02-03T06:12:04.151Z,5.00
2023-02-03T06:13:04.268Z,5.00
2023-02-03T06:14:04.008Z,5.00
2023-02-03T06:15:03.671Z,5.00
2023-02-03T06:16:03.687Z,5.00
2023-02-03T06:17:03.694Z,5.00
2023-02-03T06:18:03.721Z,5.06
2023-02-03T06:19:03.611Z,5.06
2023-02-03T06:20:03.586Z,5.06
2023-02-03T06:21:03.516Z,5.06
2023-02-03T06:22:03.674Z,5.06
2023-02-03T06:23:03.707Z,5.06
2023-02-03T06:24:04.657Z,5.06
2023-02-03T06:25:03.760Z,5.06
2023-02-03T06:26:03.601Z,5.06
2023-02-03T06:27:03.759Z,5.06
2023-02-03T06:28:03.813Z,5.06
2023-02-03T06:29:03.774Z,5.06
2023-02-03T06:30:03.675Z,5.06
2023-02-03T06:31:03.855Z,5.12
2023-02-03T06:32:03.865Z,5.12
2023-02-03T06:33:03.682Z,5.12
2023-02-03T06:34:03.577Z,5.12
2023-02-03T06:35:03.600Z,5.12
2023-02-03T06:36:03.600Z,5.12
2023-02-03T06:37:03.672Z,5.12
2023-02-03T06:38:03.603Z,5.12
2023-02-03T06:39:03.682Z,5.12
2023-02-03T06:40:03.670Z,5.12
2023-02-03T06:41:03.675Z,5.12
2023-02-03T06:42:03.757Z,5.12
2023-02-03T06:43:03.835Z,5.12
2023-02-03T06:44:03.755Z,5.12
2023-02-03T06:45:03.783Z,5.12
2023-02-03T06:46:03.781Z,5.12
2023-02-03T06:47:03.833Z,5.12
2023-02-03T06:48:03.683Z,5.12
2023-02-03T06:49:03.672Z,5.12
2023-02-03T06:50:03.689Z,5.12
2023-02-03T06:51:03.674Z,5.12
2023-02-03T06:52:03.838Z,5.12
2023-02-03T06:53:03.828Z,5.12
2023-02-03T06:54:03.678Z,5.12
2023-02-03T06:55:03.667Z,5.19
2023-02-03T06:56:03.761Z,5.19
2023-02-03T06:57:03.752Z,5.19
2023-02-03T06:58:03.701Z,5.19
2023-02-03T06:59:03.590Z,5.19
2023-02-03T07:00:03.571Z,5.25
2023-02-03T07:01:04.568Z,5.25
2023-02-03T07:02:04.397Z,5.19
2023-02-03T07:03:04.581Z,5.25
2023-02-03T07:04:04.396Z,5.25
2023-02-03T07:05:04.322Z,5.25
2023-02-03T07:06:03.441Z,5.25
2023-02-03T07:07:04.406Z,5.25
2023-02-03T07:08:04.308Z,5.25
2023-02-03T07:09:04.398Z,5.25
2023-02-03T07:10:04.238Z,5.25
2023-02-03T07:11:04.240Z,5.31
2023-02-03T07:12:04.169Z,5.25
2023-02-03T07:13:04.161Z,5.25
2023-02-03T07:14:04.002Z,5.25
2023-02-03T07:15:03.992Z,5.25
2023-02-03T07:16:03.968Z,5.25
2023-02-03T07:17:03.996Z,5.31
2023-02-03T07:18:03.922Z,5.31
2023-02-03T07:19:04.241Z,5.31
2023-02-03T07:20:04.241Z,5.25
2023-02-03T07:21:04.314Z,5.25
2023-02-03T07:22:04.404Z,5.31
2023-02-03T07:23:04.307Z,5.31
2023-02-03T07:24:04.231Z,5.31
2023-02-03T07:25:03.433Z,5.31
2023-02-03T07:26:04.383Z,5.31
2023-02-03T07:27:04.705Z,5.31
2023-02-03T07:28:04.313Z,5.31
2023-02-03T07:29:04.183Z,5.31
2023-02-03T07:30:04.177Z,5.31
2023-02-03T07:31:04.202Z,5.31
2023-02-03T07:32:04.209Z,5.38
2023-02-03T07:33:04.070Z,5.38
2023-02-03T07:34:04.076Z,5.38
2023-02-03T07:35:04.075Z,5.38
2023-02-03T07:36:03.991Z,5.44
2023-02-03T07:37:04.070Z,5.44
2023-02-03T07:38:04.151Z,5.44
2023-02-03T07:39:04.087Z,5.44
2023-02-03T07:40:04.143Z,5.44
2023-02-03T07:41:04.078Z,5.44
2023-02-03T07:42:04.000Z,5.44
2023-02-03T07:43:03.914Z,5.50
2023-02-03T07:44:03.946Z,5.50
2023-02-03T07:45:03.918Z,5.50
2023-02-03T07:46:03.926Z,5.50
2023-02-03T07:47:03.993Z,5.50
2023-02-03T07:48:03.913Z,5.56
2023-02-03T07:49:03.926Z,5.56
2023-02-03T07:50:04.002Z,5.56
2023-02-03T07:51:03.909Z,5.56
2023-02-03T07:52:03.829Z,5.62
2023-02-03T07:53:03.831Z,5.62
2023-02-03T07:54:03.831Z,5.62
2023-02-03T07:55:03.831Z,5.62
2023-02-03T07:56:04.161Z,5.62
2023-02-03T07:57:03.916Z,5.69
2023-02-03T07:58:03.851Z,5.69
2023-02-03T07:59:03.762Z,5.69
2023-02-03T08:00:03.761Z,5.69
2023-02-03T08:01:03.676Z,5.69
2023-02-03T08:02:03.853Z,5.69
2023-02-03T08:03:03.673Z,5.69
2023-02-03T08:04:03.595Z,5.75
2023-02-03T08:05:03.662Z,5.75
2023-02-03T08:06:03.678Z,5.75
2023-02-03T08:07:03.837Z,5.75
2023-02-03T08:08:03.747Z,5.75
2023-02-03T08:09:03.746Z,5.75
2023-02-03T08:10:03.598Z,5.81
2023-02-03T08:11:03.598Z,5.81
2023-02-03T08:12:03.764Z,5.81
2023-02-03T08:13:03.751Z,5.81
2023-02-03T08:14:03.689Z,5.81
2023-02-03T08:15:03.667Z,5.81
2023-02-03T08:16:03.637Z,5.81
2023-02-03T08:17:03.683Z,5.88
2023-02-03T08:18:03.670Z,5.88
2023-02-03T08:19:03.665Z,5.88
2023-02-03T08:20:03.836Z,5.88
2023-02-03T08:21:03.838Z,5.88
2023-02-03T08:22:04.083Z,5.88
2023-02-03T08:23:03.913Z,5.88
2023-02-03T08:24:03.921Z,5.88
2023-02-03T08:25:03.746Z,5.94
2023-02-03T08:26:03.771Z,5.94
2023-02-03T08:27:04.001Z,5.94
2023-02-03T08:28:03.771Z,5.94
2023-02-03T08:29:03.753Z,5.94
2023-02-03T08:30:03.674Z,5.94
2023-02-03T08:31:03.717Z,5.94
2023-02-03T08:32:05.264Z,6.00
2023-02-03T08:33:03.681Z,6.00
2023-02-03T08:34:03.601Z,6.00
2023-02-03T08:35:03.591Z,6.00
2023-02-03T08:36:03.684Z,6.06
2023-02-03T08:37:03.755Z,6.06
2023-02-03T08:38:03.844Z,6.06
2023-02-03T08:39:03.835Z,6.06
2023-02-03T08:40:03.835Z,6.06
2023-02-03T08:41:03.925Z,6.06
2023-02-03T08:42:03.853Z,6.06
2023-02-03T08:43:04.234Z,6.12
2023-02-03T08:44:04.207Z,6.12
2023-02-03T08:45:05.225Z,6.12
2023-02-03T08:46:04.364Z,6.12
2023-02-03T08:47:04.241Z,6.12
2023-02-03T08:48:04.105Z,6.12
2023-02-03T08:49:04.016Z,6.19
2023-02-03T08:50:03.989Z,6.19
2023-02-03T08:51:03.997Z,6.25
2023-02-03T08:52:03.927Z,6.25
2023-02-03T08:53:03.916Z,6.25
2023-02-03T08:54:03.837Z,6.25
2023-02-03T08:55:03.920Z,6.25
2023-02-03T08:56:03.911Z,6.25
2023-02-03T08:57:04.151Z,6.31
2023-02-03T08:58:04.155Z,6.31
2023-02-03T08:59:04.073Z,6.31
2023-02-03T09:00:04.087Z,6.31
2023-02-03T09:01:05.074Z,6.31
2023-02-03T09:02:04.084Z,6.31
2023-02-03T09:03:03.785Z,6.31
2023-02-03T09:04:03.679Z,6.31
2023-02-03T09:05:03.857Z,6.38
2023-02-03T09:06:03.675Z,6.38
2023-02-03T09:07:03.831Z,6.38
2023-02-03T09:08:03.752Z,6.38
2023-02-03T09:09:03.587Z,6.38
2023-02-03T09:10:03.519Z,6.38
2023-02-03T09:11:03.516Z,6.38
2023-02-03T09:12:03.676Z,6.38
2023-02-03T09:13:03.513Z,6.38
2023-02-03T09:14:03.509Z,6.38
2023-02-03T09:15:04.012Z,6.38
2023-02-03T09:16:03.997Z,6.38
2023-02-03T09:17:04.187Z,6.38
2023-02-03T09:18:04.099Z,6.38
2023-02-03T09:19:03.917Z,6.38
2023-02-03T09:20:04.038Z,6.38
2023-02-03T09:21:03.863Z,6.44
2023-02-03T09:22:04.079Z,6.44
2023-02-03T09:23:03.762Z,6.44
2023-02-03T09:24:03.686Z,6.44
2023-02-03T09:25:03.605Z,6.44
2023-02-03T09:26:03.436Z,6.44
2023-02-03T09:27:04.353Z,6.44
2023-02-03T09:28:04.445Z,6.44
2023-02-03T09:29:04.151Z,6.44
2023-02-03T09:30:04.139Z,6.44
2023-02-03T09:31:04.125Z,6.44
2023-02-03T09:32:04.245Z,6.44
2023-02-03T09:33:04.028Z,6.44
2023-02-03T09:34:04.037Z,6.44
2023-02-03T09:35:03.869Z,6.50
2023-02-03T09:36:03.839Z,6.50
2023-02-03T09:37:03.854Z,6.50
2023-02-03T09:38:03.833Z,6.50
2023-02-03T09:39:03.911Z,6.50
2023-02-03T09:40:03.916Z,6.50
2023-02-03T09:41:11.499Z,6.50
2023-02-03T09:42:04.011Z,6.50
2023-02-03T09:43:04.094Z,6.50
2023-02-03T09:44:03.839Z,6.50
2023-02-03T09:45:03.856Z,6.50
2023-02-03T09:46:03.795Z,6.56
2023-02-03T09:47:03.919Z,6.56
2023-02-03T09:48:03.748Z,6.56
2023-02-03T09:49:03.672Z,6.56
2023-02-03T09:50:03.540Z,6.56
2023-02-03T09:51:03.597Z,6.56
2023-02-03T09:52:04.390Z,6.56
2023-02-03T09:53:04.396Z,6.56
2023-02-03T09:54:04.324Z,6.56
2023-02-03T09:55:04.318Z,6.56
2023-02-03T09:56:04.233Z,6.56
2023-02-03T09:57:04.235Z,6.62
2023-02-03T09:58:04.077Z,6.62
2023-02-03T09:59:04.010Z,6.62
2023-02-03T10:00:03.841Z,6.62
2023-02-03T10:01:03.855Z,6.62
2023-02-03T10:02:04.071Z,6.62
2023-02-03T10:03:03.930Z,6.62
2023-02-03T10:04:03.767Z,6.62
2023-02-03T10:05:03.596Z,6.69
2023-02-03T10:06:03.518Z,6.69
2023-02-03T10:07:03.762Z,6.69
2023-02-03T10:08:03.605Z,6.75
2023-02-03T10:09:03.674Z,6.75
2023-02-03T10:10:03.513Z,6.75
2023-02-03T10:11:03.592Z,6.75
2023-02-03T10:12:03.591Z,6.75
2023-02-03T10:13:03.673Z,6.75
2023-02-03T10:14:03.599Z,6.75
2023-02-03T10:15:03.517Z,6.75
2023-02-03T10:16:03.594Z,6.81
2023-02-03T10:17:03.837Z,6.81
2023-02-03T10:18:03.602Z,6.81
2023-02-03T10:19:04.278Z,6.81
2023-02-03T10:20:03.602Z,6.81
2023-02-03T10:21:03.431Z,6.81
2023-02-03T10:23:03.841Z,6.88
2023-02-03T10:24:03.908Z,6.81
2023-02-03T10:25:03.919Z,6.88
2023-02-03T10:26:04.076Z,6.88
2023-02-03T10:27:03.916Z,6.88
2023-02-03T10:28:04.050Z,6.88
2023-02-03T10:29:03.923Z,6.88
2023-02-03T10:30:03.846Z,6.88
2023-02-03T10:31:03.858Z,6.88
2023-02-03T10:32:03.812Z,6.88
2023-02-03T10:33:03.661Z,6.88
2023-02-03T10:34:03.851Z,6.88
2023-02-03T10:35:03.758Z,6.88
2023-02-03T10:36:03.602Z,6.88
2023-02-03T10:37:03.759Z,6.88
2023-02-03T10:38:03.667Z,6.94
2023-02-03T10:39:03.841Z,6.94
2023-02-03T10:40:03.936Z,6.94
2023-02-03T10:41:03.937Z,6.94
2023-02-03T10:42:03.745Z,6.94
2023-02-03T10:43:03.671Z,6.94
2023-02-03T10:44:03.985Z,6.94
2023-02-03T10:45:03.675Z,6.94
2023-02-03T10:46:03.612Z,6.94
2023-02-03T10:47:03.529Z,6.94
2023-02-03T10:48:03.526Z,6.94
2023-02-03T10:49:03.909Z,6.94
2023-02-03T10:50:03.756Z,6.94
2023-02-03T10:51:03.588Z,6.94
2023-02-03T10:52:03.591Z,6.94
2023-02-03T10:53:03.669Z,7.00
2023-02-03T10:54:03.837Z,7.00
2023-02-03T10:55:03.768Z,7.00
2023-02-03T10:56:03.613Z,7.00
2023-02-03T10:57:03.682Z,7.00
2023-02-03T10:58:03.675Z,7.00
2023-02-03T10:59:03.759Z,7.00
2023-02-03T11:00:03.596Z,7.00
2023-02-03T11:01:03.590Z,7.00
2023-02-03T11:02:03.575Z,7.00
2023-02-03T11:03:03.509Z,7.00
2023-02-03T11:04:03.875Z,7.00
2023-02-03T11:05:04.075Z,7.00
2023-02-03T11:06:03.750Z,7.00
2023-02-03T11:07:03.672Z,7.00
2023-02-03T11:08:03.596Z,7.00
2023-02-03T11:09:03.835Z,7.00
2023-02-03T11:10:03.985Z,7.00
2023-02-03T11:11:04.001Z,7.00
2023-02-03T11:12:03.908Z,7.00
2023-02-03T11:13:03.749Z,7.06
2023-02-03T11:14:04.094Z,7.06
2023-02-03T11:15:03.919Z,7.06
2023-02-03T11:16:03.808Z,7.06
2023-02-03T11:17:03.771Z,7.06
2023-02-03T11:18:03.755Z,7.06
2023-02-03T11:19:04.006Z,7.06
2023-02-03T11:20:03.908Z,7.06
2023-02-03T11:21:03.834Z,7.06
2023-02-03T11:22:03.827Z,7.06
2023-02-03T11:23:03.751Z,7.06
2023-02-03T11:24:03.999Z,7.06
2023-02-03T11:25:04.001Z,7.06
2023-02-03T11:26:04.072Z,7.06
2023-02-03T11:27:04.097Z,7.12
2023-02-03T11:28:04.194Z,7.12
2023-02-03T11:29:03.849Z,7.12
2023-02-03T11:30:03.669Z,7.12
2023-02-03T11:31:03.701Z,7.12
2023-02-03T11:32:03.759Z,7.12
2023-02-03T11:33:03.515Z,7.12
2023-02-03T11:34:04.401Z,7.12
2023-02-03T11:35:04.400Z,7.12
2023-02-03T11:36:04.229Z,7.12
2023-02-03T11:37:04.234Z,7.12
2023-02-03T11:38:04.246Z,7.12
2023-02-03T11:39:04.145Z,7.12
2023-02-03T11:40:04.076Z,7.19
2023-02-03T11:41:04.065Z,7.19
2023-02-03T11:42:04.018Z,7.19
2023-02-03T11:43:04.057Z,7.19
2023-02-03T11:44:04.075Z,7.19
2023-02-03T11:45:03.992Z,7.25
2023-02-03T11:46:03.917Z,7.25
2023-02-03T11:47:03.834Z,7.25
2023-02-03T11:48:03.758Z,7.25
2023-02-03T11:49:03.912Z,7.25
2023-02-03T11:50:03.928Z,7.25
2023-02-03T11:51:04.014Z,7.25
2023-02-03T11:52:03.834Z,7.25
2023-02-03T11:53:03.768Z,7.25
2023-02-03T11:54:03.831Z,7.25
2023-02-03T11:55:03.948Z,7.25
2023-02-03T11:56:03.836Z,7.25
2023-02-03T11:57:03.750Z,7.25
2023-02-03T11:58:03.696Z,7.25
2023-02-03T11:59:03.748Z,7.25
2023-02-03T12:00:03.782Z,7.25
2023-02-03T12:01:03.597Z,7.25
2023-02-03T12:02:03.758Z,7.25
2023-02-03T12:03:03.799Z,7.25
2023-02-03T12:04:03.643Z,7.25
2023-02-03T12:05:03.680Z,7.25
2023-02-03T12:06:03.670Z,7.25
2023-02-03T12:07:03.541Z,7.25
2023-02-03T12:08:04.400Z,7.25
2023-02-03T12:09:04.327Z,7.25
2023-02-03T12:10:04.315Z,7.25
2023-02-03T12:11:04.274Z,7.25
2023-02-03T12:12:04.236Z,7.25
2023-02-03T12:13:04.174Z,7.25
2023-02-03T12:14:04.400Z,7.25
2023-02-03T12:15:04.401Z,7.31
2023-02-03T12:16:04.456Z,7.31
2023-02-03T12:17:04.469Z,7.31
2023-02-03T12:18:04.315Z,7.31
2023-02-03T12:19:04.402Z,7.31
2023-02-03T12:20:04.319Z,7.31
2023-02-03T12:21:04.249Z,7.31
2023-02-03T12:22:04.177Z,7.31
2023-02-03T12:23:04.015Z,7.31
2023-02-03T12:24:04.154Z,7.31
2023-02-03T12:25:04.146Z,7.31
2023-02-03T12:26:04.115Z,7.31
2023-02-03T12:27:03.909Z,7.38
2023-02-03T12:28:04.029Z,7.38
2023-02-03T12:29:04.072Z,7.31
2023-02-03T12:30:04.076Z,7.38
2023-02-03T12:31:04.173Z,7.38
2023-02-03T12:32:04.143Z,7.38
2023-02-03T12:33:04.040Z,7.38
2023-02-03T12:34:04.080Z,7.38
2023-02-03T12:35:04.000Z,7.38
2023-02-03T12:36:04.066Z,7.31
2023-02-03T12:37:03.900Z,7.31
2023-02-03T12:38:03.905Z,7.31
2023-02-03T12:39:04.151Z,7.31
2023-02-03T12:40:04.340Z,7.31
2023-02-03T12:41:04.338Z,7.31
2023-02-03T12:42:04.153Z,7.31
2023-02-03T12:43:04.081Z,7.31
2023-02-03T12:44:04.230Z,7.31
2023-02-03T12:45:04.237Z,7.31
2023-02-03T12:46:04.241Z,7.31
2023-02-03T12:47:04.062Z,7.31
2023-02-03T12:48:04.079Z,7.31
2023-02-03T12:49:03.980Z,7.31
2023-02-03T12:50:04.079Z,7.31
2023-02-03T12:51:04.011Z,7.31
2023-02-03T12:52:04.030Z,7.31
2023-02-03T12:53:03.923Z,7.31
2023-02-03T12:54:04.071Z,7.31
2023-02-03T12:55:04.149Z,7.31
2023-02-03T12:56:04.077Z,7.31
2023-02-03T12:57:04.013Z,7.31
2023-02-03T12:58:03.908Z,7.31
2023-02-03T12:59:04.065Z,7.31
2023-02-03T13:00:04.113Z,7.31
2023-02-03T13:01:04.060Z,7.31
2023-02-03T13:02:04.084Z,7.31
2023-02-03T13:03:03.835Z,7.31
2023-02-03T13:04:03.986Z,7.31
2023-02-03T13:05:03.998Z,7.31
2023-02-03T13:06:03.834Z,7.31
2023-02-03T13:07:03.837Z,7.31
2023-02-03T13:08:03.834Z,7.31
2023-02-03T13:09:03.992Z,7.31
2023-02-03T13:10:03.919Z,7.31
2023-02-03T13:11:03.909Z,7.25
2023-02-03T13:12:04.337Z,7.31
2023-02-03T13:13:04.432Z,7.31
2023-02-03T13:14:03.941Z,7.31
2023-02-03T13:15:06.975Z,7.31
2023-02-03T13:16:05.609Z,7.31
2023-02-03T13:17:04.081Z,7.38
2023-02-03T13:18:04.169Z,7.31
2023-02-03T13:19:04.631Z,7.31
2023-02-03T13:20:03.825Z,7.31
2023-02-03T13:21:04.253Z,7.31
2023-02-03T13:22:04.252Z,7.31